This is the latest recevied weather packets stored in our database for station/object CW79215. If no packets are shown the sender has not sent any weather packets the latest 10 day(s).
| Time | Temp. | Humidity | Pressure | Rain* | Wind** | Luminosity | Snow |
|---|---|---|---|---|---|---|---|
| 1788573044 | 21.11° C | 63% | 1029.3 hPa | - | - | - | - |
| 1788572144 | 21.11° C | 63% | 1029.3 hPa | - | - | - | - |
| 1788571244 | 20.56° C | 65% | 1029.3 hPa | - | - | - | - |
| 1788570344 | 20.56° C | 64% | 1029.1 hPa | - | - | - | - |
| 1788569443 | 21.11° C | 63% | 1029.3 hPa | - | - | - | - |
| 1788568543 | 20.56° C | 63% | 1029.1 hPa | - | - | - | - |
| 1788567643 | 20° C | 65% | 1029 hPa | - | - | - | - |
| 1788566743 | 20.56° C | 64% | 1028.8 hPa | - | - | - | - |
| 1788565843 | 20.56° C | 63% | 1028.8 hPa | - | - | - | - |
| 1788564943 | 21.11° C | 62% | 1028.7 hPa | - | - | - | - |
| 1788564043 | 20.56° C | 63% | 1028.5 hPa | - | - | - | - |
| 1788563143 | 21.11° C | 63% | 1028.3 hPa | - | - | - | - |
| 1788562243 | 20.56° C | 65% | 1028.3 hPa | - | - | - | - |
| 1788561343 | 21.11° C | 63% | 1027.9 hPa | - | - | - | - |
| 1788560443 | 21.11° C | 64% | 1027.7 hPa | - | - | - | - |
| 1788559543 | 21.11° C | 62% | 1027.6 hPa | - | - | - | - |
| 1788558642 | 21.67° C | 59% | 1027.4 hPa | - | - | - | - |
| 1788557742 | 21.67° C | 60% | 1027.3 hPa | - | - | - | - |
| 1788556842 | 22.22° C | 58% | 1027.2 hPa | - | - | - | - |
| 1788555942 | 22.78° C | 57% | 1027 hPa | - | - | - | - |
| 1788555041 | 22.78° C | 57% | 1026.8 hPa | - | - | - | - |
| 1788554143 | 22.78° C | 56% | 1026.8 hPa | - | - | - | - |
| 1788553243 | 22.78° C | 56% | 1026.8 hPa | - | - | - | - |
| 1788552343 | 22.78° C | 56% | 1026.7 hPa | - | - | - | - |
| 1788551443 | 23.33° C | 55% | 1026.6 hPa | - | - | - | - |
* Rain since midnight (hover to see other rain measurements)
** Current wind speed in m/s (hover to see current wind gust speed)